Time;durP1;ratioP1;P1;durP2;ratioP2;P2;SDS_P1;SDS_P2;PMS_P1;PMS_P2;Temp;Humidity;BMP_temperature;BMP_pressure;BME280_temperature;BME280_humidity;BME280_pressure;Samples;Min_cycle;Max_cycle;Signal;HPM_P1;HPM_P2
2023/07/01 00:01:30;;;;;;;4.93;2.60;;;18.30;1.00;;;;;;7386600;19;20034;-70
2023/07/01 00:04:00;;;;;;;4.00;2.38;;;18.20;1.00;;;;;;7390454;19;20006;-70
2023/07/01 00:06:33;;;;;;;6.00;2.65;;;18.20;1.00;;;;;;7388084;19;20018;-70
2023/07/01 00:09:03;;;;;;;2.80;2.08;;;18.10;1.00;;;;;;7386982;19;20026;-70
2023/07/01 00:11:33;;;;;;;4.07;2.75;;;18.10;1.00;;;;;;7384661;19;20014;-70
2023/07/01 00:14:02;;;;;;;4.15;2.60;;;18.10;1.00;;;;;;7390441;19;20029;-70
2023/07/01 00:16:32;;;;;;;3.25;2.50;;;18.10;1.00;;;;;;7388041;19;20043;-71
2023/07/01 00:19:03;;;;;;;4.25;2.38;;;18.10;1.00;;;;;;7387823;19;20035;-71
2023/07/01 00:21:36;;;;;;;5.75;2.47;;;18.00;1.00;;;;;;7386401;19;20018;-71
2023/07/01 00:24:06;;;;;;;4.15;2.55;;;18.00;1.00;;;;;;7395638;19;20054;-71
2023/07/01 00:26:36;;;;;;;4.10;2.38;;;18.00;1.00;;;;;;7395590;19;20471;-71
2023/07/01 00:29:06;;;;;;;2.72;2.20;;;17.90;1.00;;;;;;7394691;19;20014;-71
2023/07/01 00:31:35;;;;;;;6.60;2.30;;;17.90;1.00;;;;;;7392316;19;20094;-71
2023/07/01 00:34:06;;;;;;;6.00;2.55;;;17.90;1.00;;;;;;7397556;19;20014;-71
2023/07/01 00:36:38;;;;;;;5.57;2.65;;;17.80;1.00;;;;;;7394860;19;20018;-71
2023/07/01 00:39:08;;;;;;;7.95;2.97;;;17.80;1.00;;;;;;7394983;19;20029;-71
2023/07/01 00:41:38;;;;;;;2.60;2.17;;;17.60;1.00;;;;;;7394979;19;20011;-70
2023/07/01 00:44:08;;;;;;;2.83;1.98;;;17.60;1.00;;;;;;7396912;19;20075;-70
2023/07/01 00:46:38;;;;;;;3.95;2.50;;;17.50;1.00;;;;;;7395054;19;20644;-71
2023/07/01 00:49:08;;;;;;;4.72;2.22;;;17.50;1.00;;;;;;7394766;19;20044;-70
2023/07/01 00:51:41;;;;;;;3.85;2.70;;;17.40;1.00;;;;;;7398885;19;20037;-70
2023/07/01 00:54:11;;;;;;;5.15;2.63;;;17.50;1.00;;;;;;7397729;19;20018;-70
2023/07/01 00:56:41;;;;;;;3.33;2.40;;;17.30;1.00;;;;;;7393639;19;20054;-70
2023/07/01 00:59:10;;;;;;;3.72;2.40;;;17.30;1.00;;;;;;7398342;19;20090;-70
2023/07/01 01:01:45;;;;;;;4.90;2.65;;;17.30;1.00;;;;;;7392745;19;20394;-70
2023/07/01 01:04:22;;;;;;;5.45;2.72;;;17.20;1.00;;;;;;7396237;19;20014;-71
2023/07/01 01:07:01;;;;;;;5.70;2.70;;;17.10;1.00;;;;;;7394178;19;20149;-71
2023/07/01 01:09:35;;;;;;;4.43;2.45;;;17.10;1.00;;;;;;7394151;19;20357;-71
2023/07/01 01:12:09;;;;;;;3.88;2.65;;;17.10;1.00;;;;;;7394280;19;20018;-70
2023/07/01 01:14:40;;;;;;;3.78;2.47;;;17.00;1.00;;;;;;7397032;19;20099;-70
2023/07/01 01:17:15;;;;;;;2.42;2.05;;;16.90;1.00;;;;;;7393496;19;20349;-70
2023/07/01 01:19:48;;;;;;;5.38;2.63;;;16.90;1.00;;;;;;7388010;19;20018;-70
2023/07/01 01:22:26;;;;;;;3.90;2.37;;;16.90;1.00;;;;;;7385783;19;20010;-70
2023/07/01 01:24:59;;;;;;;4.00;2.20;;;16.90;1.00;;;;;;7383364;19;20323;-69
2023/07/01 01:27:38;;;;;;;4.88;2.38;;;16.80;1.00;;;;;;7385491;19;20028;-71
2023/07/01 01:30:10;;;;;;;4.22;2.50;;;16.80;1.00;;;;;;7387641;19;20085;-70
2023/07/01 01:32:40;;;;;;;5.22;2.45;;;16.70;1.00;;;;;;7384089;19;20011;-71
2023/07/01 01:35:10;;;;;;;3.53;2.33;;;16.80;1.00;;;;;;7386250;19;20043;-70
2023/07/01 01:37:46;;;;;;;4.10;2.80;;;16.70;1.00;;;;;;7388014;19;20030;-70
2023/07/01 01:40:18;;;;;;;6.05;2.47;;;16.70;1.00;;;;;;7389450;19;20603;-70
2023/07/01 01:42:52;;;;;;;6.18;2.45;;;16.70;1.00;;;;;;7393588;19;20019;-71
2023/07/01 01:45:23;;;;;;;6.15;2.55;;;16.60;1.00;;;;;;7392062;19;20018;-71
2023/07/01 01:47:54;;;;;;;4.65;2.50;;;16.50;1.00;;;;;;7392990;19;20014;-71
2023/07/01 01:50:25;;;;;;;3.35;2.50;;;16.50;1.00;;;;;;7391985;19;20082;-71
2023/07/01 01:52:57;;;;;;;3.00;2.50;;;16.40;1.00;;;;;;7392726;19;20010;-71
2023/07/01 01:55:28;;;;;;;4.10;2.30;;;16.50;1.00;;;;;;7392607;19;20019;-71
2023/07/01 01:58:02;;;;;;;3.03;2.30;;;16.50;1.00;;;;;;7393017;19;20039;-71
2023/07/01 02:00:34;;;;;;;3.28;2.83;;;16.40;1.00;;;;;;7391375;19;20014;-71
2023/07/01 02:03:05;;;;;;;2.90;2.22;;;16.30;1.00;;;;;;7392440;19;20014;-71
2023/07/01 02:05:35;;;;;;;3.53;2.40;;;16.30;1.00;;;;;;7391628;19;20023;-71
2023/07/01 02:08:06;;;;;;;5.03;2.55;;;16.30;1.00;;;;;;7392327;19;20018;-71
2023/07/01 02:10:36;;;;;;;5.22;2.35;;;16.20;1.00;;;;;;7390743;19;20035;-70
2023/07/01 02:13:09;;;;;;;3.03;2.25;;;16.10;1.00;;;;;;7391937;19;20015;-70
2023/07/01 02:15:39;;;;;;;3.78;2.55;;;16.30;1.00;;;;;;7392118;19;20018;-71
2023/07/01 02:18:09;;;;;;;4.60;2.75;;;16.30;1.00;;;;;;7391836;19;20018;-70
2023/07/01 02:20:39;;;;;;;4.18;3.03;;;16.10;1.00;;;;;;7390959;19;20014;-71
2023/07/01 02:23:10;;;;;;;4.47;2.63;;;16.10;1.00;;;;;;7391734;19;20053;-71
2023/07/01 02:25:40;;;;;;;5.75;2.80;;;16.10;1.00;;;;;;7390938;19;20114;-71
2023/07/01 02:28:13;;;;;;;5.38;2.85;;;16.00;1.00;;;;;;7391501;19;20022;-71
2023/07/01 02:30:43;;;;;;;9.03;3.10;;;16.00;1.00;;;;;;7395033;19;20475;-71
2023/07/01 02:33:14;;;;;;;2.63;2.20;;;16.00;1.00;;;;;;7391366;19;20255;-71
2023/07/01 02:35:43;;;;;;;3.17;2.58;;;16.10;1.00;;;;;;7391300;19;20354;-71
2023/07/01 02:38:14;;;;;;;4.35;2.40;;;16.10;1.00;;;;;;7391566;19;20070;-71
2023/07/01 02:40:44;;;;;;;3.00;2.70;;;16.00;1.00;;;;;;7389699;19;20015;-70
2023/07/01 02:43:17;;;;;;;4.68;2.83;;;15.90;1.00;;;;;;7391458;19;20018;-71
2023/07/01 02:45:47;;;;;;;5.18;2.83;;;15.80;1.00;;;;;;7389022;19;20018;-71
2023/07/01 02:48:17;;;;;;;6.18;2.90;;;15.90;1.00;;;;;;7390996;19;20039;-70
2023/07/01 02:50:47;;;;;;;4.32;2.95;;;15.80;1.00;;;;;;7389722;19;20451;-71
2023/07/01 02:53:18;;;;;;;3.90;2.63;;;15.90;1.00;;;;;;7390790;19;20466;-71
2023/07/01 02:55:48;;;;;;;4.10;3.05;;;15.80;1.00;;;;;;7391333;19;20024;-71
2023/07/01 02:58:22;;;;;;;5.72;2.90;;;15.80;1.00;;;;;;7390516;19;20090;-71
2023/07/01 03:00:52;;;;;;;3.13;2.80;;;15.70;1.00;;;;;;7389497;19;20487;-71
2023/07/01 03:03:22;;;;;;;3.72;3.17;;;15.90;1.00;;;;;;7390643;19;20023;-71
2023/07/01 03:05:52;;;;;;;5.05;3.42;;;15.80;1.00;;;;;;7390118;19;20014;-71
2023/07/01 03:08:22;;;;;;;4.07;2.70;;;15.90;1.00;;;;;;7388620;19;20035;-71
2023/07/01 03:10:52;;;;;;;5.03;3.00;;;15.80;1.00;;;;;;7387453;19;20165;-71
2023/07/01 03:13:24;;;;;;;4.47;3.10;;;15.70;1.00;;;;;;7390354;19;20035;-71
2023/07/01 03:15:56;;;;;;;5.32;3.08;;;15.70;1.00;;;;;;7390674;19;20022;-71
2023/07/01 03:18:27;;;;;;;6.13;3.40;;;15.80;1.00;;;;;;7390180;19;20018;-71
2023/07/01 03:21:00;;;;;;;2.97;2.65;;;15.80;1.00;;;;;;7388756;19;20031;-71
2023/07/01 03:23:30;;;;;;;4.55;3.17;;;15.80;1.00;;;;;;7389836;19;20086;-71
2023/07/01 03:26:01;;;;;;;3.45;2.83;;;15.80;1.00;;;;;;7389557;19;20509;-71
2023/07/01 03:28:34;;;;;;;3.63;2.88;;;15.70;1.00;;;;;;7387650;19;20372;-71
2023/07/01 03:31:04;;;;;;;5.80;3.00;;;15.70;1.00;;;;;;7388516;19;20348;-72
2023/07/01 03:33:34;;;;;;;4.28;2.80;;;15.70;1.00;;;;;;7389336;19;20367;-70
2023/07/01 03:36:04;;;;;;;6.57;3.25;;;15.70;1.00;;;;;;7389292;19;20015;-70
2023/07/01 03:38:34;;;;;;;4.10;3.22;;;15.80;1.00;;;;;;7389498;19;20045;-71
2023/07/01 03:41:06;;;;;;;4.07;2.90;;;15.80;1.00;;;;;;7387445;19;20487;-72
2023/07/01 03:43:39;;;;;;;8.57;3.63;;;15.90;1.00;;;;;;7389179;19;20018;-73
2023/07/01 03:46:09;;;;;;;7.00;3.10;;;16.10;1.00;;;;;;7389000;19;20015;-72
2023/07/01 03:48:39;;;;;;;3.70;3.00;;;16.70;1.00;;;;;;7389494;19;20010;-72
2023/07/01 03:51:09;;;;;;;4.85;3.05;;;17.00;1.00;;;;;;7387937;19;20034;-71
2023/07/01 03:53:39;;;;;;;4.88;2.75;;;17.20;1.00;;;;;;7388563;19;20025;-70
2023/07/01 03:56:09;;;;;;;3.50;2.55;;;17.40;1.00;;;;;;7389410;19;20046;-71
2023/07/01 03:58:41;;;;;;;2.63;2.40;;;17.10;1.00;;;;;;7388992;19;20014;-71
2023/07/01 04:01:15;;;;;;;3.67;2.42;;;17.60;1.00;;;;;;7387760;19;20090;-71
2023/07/01 04:03:46;;;;;;;;;;;17.70;1.00;;;;;;7389733;19;20022;-72
2023/07/01 04:06:16;;;;;;;3.63;2.63;;;18.00;1.00;;;;;;7388275;19;19933;-71
2023/07/01 04:08:46;;;;;;;5.20;3.13;;;18.10;1.00;;;;;;7387215;19;20031;-71
2023/07/01 04:11:16;;;;;;;3.55;2.75;;;18.30;1.00;;;;;;7387175;19;20055;-71
2023/07/01 04:13:49;;;;;;;4.80;2.88;;;18.40;1.00;;;;;;7388239;19;20019;-70
2023/07/01 04:16:19;;;;;;;3.88;3.20;;;19.10;1.00;;;;;;7388328;19;20424;-71
2023/07/01 04:18:49;;;;;;;5.78;2.60;;;18.70;1.00;;;;;;7388403;19;20031;-70
2023/07/01 04:21:18;;;;;;;3.67;2.60;;;19.20;1.00;;;;;;7386841;19;20021;-71
2023/07/01 04:23:48;;;;;;;4.45;2.75;;;19.50;1.00;;;;;;7388122;19;20597;-70
2023/07/01 04:26:18;;;;;;;3.65;2.97;;;19.40;1.00;;;;;;7388343;19;20015;-70
2023/07/01 04:28:51;;;;;;;4.45;2.97;;;19.40;1.00;;;;;;7386284;19;20014;-70
2023/07/01 04:31:21;;;;;;;4.18;2.80;;;20.00;1.00;;;;;;7386309;19;20018;-71
2023/07/01 04:33:51;;;;;;;3.60;2.90;;;19.90;1.00;;;;;;7387766;19;20018;-72
2023/07/01 04:36:21;;;;;;;4.90;2.65;;;19.80;1.00;;;;;;7388208;19;20070;-71
2023/07/01 04:38:51;;;;;;;6.10;2.90;;;20.10;1.00;;;;;;7387765;19;20026;-70
2023/07/01 04:41:21;;;;;;;5.97;2.85;;;21.00;1.00;;;;;;7384577;19;21000;-71
2023/07/01 04:43:54;;;;;;;4.32;2.42;;;21.40;1.00;;;;;;7386939;19;20014;-71
2023/07/01 04:46:24;;;;;;;3.72;2.60;;;21.70;1.00;;;;;;7387669;19;20022;-71
2023/07/01 04:48:54;;;;;;;3.45;2.25;;;21.80;1.00;;;;;;7383701;19;20027;-70
2023/07/01 04:51:24;;;;;;;5.25;2.40;;;22.40;1.00;;;;;;7385430;19;20031;-71
2023/07/01 04:53:54;;;;;;;3.67;2.22;;;22.10;1.00;;;;;;7387134;19;20074;-71
2023/07/01 04:56:25;;;;;;;5.25;2.65;;;22.20;1.00;;;;;;7387809;19;20019;-71
2023/07/01 04:58:58;;;;;;;4.15;2.50;;;22.30;1.00;;;;;;7387429;19;20034;-71
2023/07/01 05:01:28;;;;;;;7.50;2.85;;;22.60;1.00;;;;;;7385605;19;20025;-71
2023/07/01 05:03:58;;;;;;;5.15;2.50;;;22.30;1.00;;;;;;7385565;19;20371;-71
2023/07/01 05:06:28;;;;;;;6.00;2.95;;;22.20;1.00;;;;;;7386837;19;20082;-70
2023/07/01 05:08:58;;;;;;;4.50;2.60;;;22.60;1.00;;;;;;7386906;19;20019;-71
2023/07/01 05:11:28;;;;;;;3.15;2.10;;;23.00;1.00;;;;;;7392225;19;20015;-71
2023/07/01 05:14:00;;;;;;;4.35;2.63;;;22.20;1.00;;;;;;7394235;19;20070;-71
2023/07/01 05:16:31;;;;;;;3.28;2.42;;;22.90;1.00;;;;;;7394954;19;20018;-71
2023/07/01 05:19:02;;;;;;;3.58;2.53;;;23.00;1.00;;;;;;7393481;19;20011;-71
2023/07/01 05:21:31;;;;;;;4.00;2.35;;;22.90;1.00;;;;;;7391601;19;20078;-71
2023/07/01 05:24:04;;;;;;;4.18;2.30;;;23.30;1.00;;;;;;7393305;19;20014;-70
2023/07/01 05:26:34;;;;;;;3.78;1.98;;;23.70;1.00;;;;;;7394266;19;20039;-71
2023/07/01 05:29:07;;;;;;;5.40;2.20;;;23.80;1.00;;;;;;7392132;19;20039;-71
2023/07/01 05:31:37;;;;;;;4.80;2.47;;;23.20;1.00;;;;;;7389829;19;20022;-70
2023/07/01 05:34:07;;;;;;;4.07;2.47;;;23.60;1.00;;;;;;7393261;19;20015;-71
2023/07/01 05:36:37;;;;;;;4.88;2.40;;;24.10;1.00;;;;;;7393128;19;20035;-71
2023/07/01 05:39:07;;;;;;;5.03;2.33;;;23.90;1.00;;;;;;7393403;19;20546;-70
2023/07/01 05:41:37;;;;;;;5.63;2.25;;;23.70;1.00;;;;;;7390611;19;20014;-71
2023/07/01 05:44:10;;;;;;;3.45;1.98;;;24.00;1.00;;;;;;7393092;19;20014;-70
2023/07/01 05:46:40;;;;;;;3.45;2.13;;;23.70;1.00;;;;;;7392761;19;20022;-70
2023/07/01 05:49:11;;;;;;;3.00;2.05;;;23.50;1.00;;;;;;7391399;19;20471;-70
2023/07/01 05:51:41;;;;;;;4.22;2.03;;;23.70;1.00;;;;;;7392857;19;20100;-71
2023/07/01 05:54:11;;;;;;;3.35;2.13;;;23.70;1.00;;;;;;7392746;19;20015;-70
2023/07/01 05:56:41;;;;;;;10.13;2.25;;;23.30;1.00;;;;;;7390904;19;20350;-71
2023/07/01 05:59:13;;;;;;;4.75;2.42;;;23.60;1.00;;;;;;7392784;19;20479;-71
2023/07/01 06:01:43;;;;;;;5.78;2.45;;;23.90;1.00;;;;;;7392989;19;20022;-70
2023/07/01 06:04:13;;;;;;;3.58;2.05;;;23.60;1.00;;;;;;7392754;19;20572;-71
2023/07/01 06:06:43;;;;;;;3.50;1.77;;;23.10;1.00;;;;;;7392306;19;20029;-71
2023/07/01 06:09:13;;;;;;;4.25;2.03;;;22.00;1.00;;;;;;7389105;19;20089;-71
2023/07/01 06:11:43;;;;;;;3.38;1.75;;;21.40;1.00;;;;;;7392668;19;20060;-71
2023/07/01 06:14:16;;;;;;;3.95;1.90;;;21.10;1.00;;;;;;7390384;19;20018;-70
2023/07/01 06:16:46;;;;;;;6.85;1.95;;;20.80;1.00;;;;;;7392517;19;20082;-72
2023/07/01 06:19:16;;;;;;;4.85;2.53;;;20.50;1.00;;;;;;7391652;19;20014;-71
2023/07/01 06:21:46;;;;;;;2.92;1.75;;;21.10;1.00;;;;;;7387678;19;20499;-71
2023/07/01 06:24:16;;;;;;;8.18;2.00;;;21.30;1.00;;;;;;7391671;19;20022;-71
2023/07/01 06:26:46;;;;;;;4.35;2.00;;;21.50;1.00;;;;;;7392222;19;20030;-72
2023/07/01 06:29:18;;;;;;;5.50;2.00;;;21.60;1.00;;;;;;7391213;19;20002;-71
2023/07/01 06:31:48;;;;;;;8.35;1.70;;;21.80;1.00;;;;;;7391087;19;20019;-72
2023/07/01 06:34:19;;;;;;;4.93;1.90;;;21.50;1.00;;;;;;7390980;19;20014;-71
2023/07/01 06:36:49;;;;;;;7.43;1.88;;;21.30;1.00;;;;;;7391315;19;20043;-72
2023/07/01 06:39:19;;;;;;;3.92;1.90;;;21.70;1.00;;;;;;7391103;19;20363;-71
2023/07/01 06:41:49;;;;;;;6.03;1.77;;;22.40;1.00;;;;;;7390916;19;20022;-71
2023/07/01 06:44:21;;;;;;;5.35;1.45;;;22.60;1.00;;;;;;7390812;19;20048;-71
2023/07/01 06:46:52;;;;;;;6.63;1.88;;;22.80;1.00;;;;;;7391506;19;20035;-72
2023/07/01 06:49:22;;;;;;;3.08;1.63;;;21.80;1.00;;;;;;7390363;19;20022;-72
2023/07/01 06:51:52;;;;;;;7.10;1.90;;;21.90;1.00;;;;;;7391415;19;20417;-72
2023/07/01 06:54:22;;;;;;;5.78;2.22;;;21.80;1.00;;;;;;7390938;19;20014;-70
2023/07/01 06:56:52;;;;;;;3.45;1.63;;;22.30;1.00;;;;;;7389932;19;20046;-72
2023/07/01 06:59:24;;;;;;;4.30;1.50;;;22.20;1.00;;;;;;7389624;19;20011;-71
2023/07/01 07:01:54;;;;;;;6.50;1.85;;;22.00;1.00;;;;;;7391075;19;20022;-72
2023/07/01 07:04:24;;;;;;;3.53;1.60;;;22.10;1.00;;;;;;7390160;19;20025;-71
2023/07/01 07:06:54;;;;;;;6.30;1.45;;;22.40;1.00;;;;;;7389705;19;20365;-72
2023/07/01 07:09:24;;;;;;;3.00;1.55;;;22.60;1.00;;;;;;7388144;19;20015;-72
2023/07/01 07:11:55;;;;;;;2.38;1.50;;;22.70;1.00;;;;;;7390161;19;20018;-71
2023/07/01 07:14:28;;;;;;;2.22;1.30;;;23.20;1.00;;;;;;7387536;19;20039;-72
2023/07/01 07:16:58;;;;;;;4.03;1.65;;;22.10;1.00;;;;;;7390522;19;20044;-72
2023/07/01 07:19:28;;;;;;;6.18;1.65;;;21.90;1.00;;;;;;7389525;19;20054;-72
2023/07/01 07:21:57;;;;;;;3.92;1.42;;;22.40;1.00;;;;;;7389788;19;20010;-72
2023/07/01 07:24:27;;;;;;;6.13;1.65;;;22.70;1.00;;;;;;7389742;19;20018;-72
2023/07/01 07:27:00;;;;;;;2.15;1.45;;;21.90;1.00;;;;;;7389993;19;20014;-72
2023/07/01 07:29:33;;;;;;;5.05;1.20;;;22.20;1.00;;;;;;7390338;19;20010;-72
2023/07/01 07:32:03;;;;;;;4.20;1.47;;;22.20;1.00;;;;;;7389138;19;20082;-72
2023/07/01 07:34:33;;;;;;;3.22;1.52;;;21.80;1.00;;;;;;7388915;19;20018;-71
2023/07/01 07:37:04;;;;;;;4.95;1.33;;;21.60;1.00;;;;;;7389422;19;20011;-72
2023/07/01 07:39:34;;;;;;;2.97;1.40;;;21.90;1.00;;;;;;7388516;19;20023;-71
2023/07/01 07:42:04;;;;;;;2.88;1.30;;;22.10;1.00;;;;;;7388992;19;20038;-71
2023/07/01 07:44:38;;;;;;;2.88;1.30;;;21.50;1.00;;;;;;7388436;19;20042;-72
2023/07/01 07:47:09;;;;;;;1.73;1.15;;;21.30;1.00;;;;;;7389034;19;20033;-72
2023/07/01 07:49:39;;;;;;;4.68;1.50;;;21.30;1.00;;;;;;7385802;19;20114;-72
2023/07/01 07:52:10;;;;;;;3.92;1.30;;;22.20;1.00;;;;;;7388930;19;20476;-73
2023/07/01 07:54:40;;;;;;;2.20;1.30;;;22.70;1.00;;;;;;7388552;19;20038;-72
2023/07/01 07:57:10;;;;;;;2.75;1.50;;;22.50;1.00;;;;;;7391504;19;20130;-73
2023/07/01 07:59:43;;;;;;;4.78;1.50;;;22.70;1.00;;;;;;7388146;19;20039;-72
2023/07/01 08:02:13;;;;;;;4.25;1.48;;;22.50;1.00;;;;;;7388488;19;20021;-74
2023/07/01 08:04:43;;;;;;;2.55;1.58;;;22.70;1.00;;;;;;7388036;19;20035;-72
2023/07/01 08:07:13;;;;;;;4.93;1.40;;;22.40;1.00;;;;;;7386283;19;20384;-72
2023/07/01 08:09:43;;;;;;;4.15;1.48;;;22.40;1.00;;;;;;7386991;19;20039;-72
2023/07/01 08:12:13;;;;;;;3.78;1.60;;;22.50;1.00;;;;;;7387810;19;20023;-72
2023/07/01 08:14:46;;;;;;;3.67;1.52;;;22.50;1.00;;;;;;7387906;19;20022;-72
2023/07/01 08:17:16;;;;;;;4.38;1.55;;;22.00;1.00;;;;;;7387974;19;20018;-72
2023/07/01 08:19:46;;;;;;;2.75;1.33;;;22.50;1.00;;;;;;7387070;19;20015;-72
2023/07/01 08:22:18;;;;;;;4.13;1.80;;;23.10;1.00;;;;;;7388095;19;20354;-73
2023/07/01 08:24:48;;;;;;;3.08;2.22;;;23.30;1.00;;;;;;7387032;19;20019;-71
2023/07/01 08:27:18;;;;;;;2.97;2.00;;;23.20;1.00;;;;;;7387769;19;20026;-72
2023/07/01 08:29:50;;;;;;;3.72;1.42;;;23.20;1.00;;;;;;7388646;19;20026;-72
2023/07/01 08:32:20;;;;;;;3.22;1.70;;;23.50;1.00;;;;;;7387624;19;20042;-73
2023/07/01 08:34:50;;;;;;;3.60;1.60;;;23.30;1.00;;;;;;7387182;19;20031;-72
2023/07/01 08:37:20;;;;;;;2.85;1.55;;;23.40;1.00;;;;;;7385840;19;20014;-72
2023/07/01 08:39:50;;;;;;;3.50;1.50;;;23.80;1.00;;;;;;7386948;19;20042;-71
2023/07/01 08:42:25;;;;;;;3.45;1.33;;;23.30;1.00;;;;;;7387187;19;20026;-72
2023/07/01 08:44:59;;;;;;;3.30;2.00;;;23.20;1.00;;;;;;7391719;19;20055;-72
2023/07/01 08:47:29;;;;;;;;;;;23.40;1.00;;;;;;7395020;19;20026;-72
2023/07/01 08:50:01;;;;;;;5.63;1.70;;;23.40;1.00;;;;;;7391487;19;19933;-72
2023/07/01 08:52:38;;;;;;;3.65;1.67;;;23.80;1.00;;;;;;7394052;19;20014;-73
2023/07/01 08:55:10;;;;;;;2.30;1.63;;;24.30;1.00;;;;;;7393493;19;20057;-73
2023/07/01 08:57:41;;;;;;;3.90;1.52;;;23.20;1.00;;;;;;7394010;19;20035;-72
2023/07/01 09:00:14;;;;;;;2.45;1.88;;;23.80;1.00;;;;;;7390704;19;20362;-71
2023/07/01 09:02:45;;;;;;;5.72;2.03;;;23.50;1.00;;;;;;7394541;19;20363;-74
2023/07/01 09:05:15;;;;;;;2.20;1.33;;;23.10;1.00;;;;;;7393919;19;20007;-72
2023/07/01 09:07:45;;;;;;;2.78;1.70;;;23.60;1.00;;;;;;7394489;19;20030;-73
2023/07/01 09:10:16;;;;;;;3.92;1.70;;;24.10;1.00;;;;;;7392253;19;20014;-72
2023/07/01 09:12:46;;;;;;;3.33;1.75;;;24.50;1.00;;;;;;7394081;19;20014;-71
2023/07/01 09:15:19;;;;;;;3.60;1.35;;;24.60;1.00;;;;;;7393692;19;20510;-73
2023/07/01 09:17:49;;;;;;;4.43;1.70;;;24.80;1.00;;;;;;7394197;19;20014;-71
2023/07/01 09:20:18;;;;;;;3.92;1.65;;;24.70;1.00;;;;;;7392440;19;20014;-71
2023/07/01 09:23:00;;;;;;;4.70;1.63;;;24.60;1.00;;;;;;7388446;19;20038;-71
2023/07/01 09:25:30;;;;;;;4.22;1.63;;;24.80;1.00;;;;;;7390457;19;20801;-71
2023/07/01 09:28:00;;;;;;;2.40;1.42;;;24.90;1.00;;;;;;7389980;19;20022;-72
2023/07/01 09:30:32;;;;;;;3.08;1.35;;;24.80;1.00;;;;;;7386939;19;20360;-72
2023/07/01 09:33:13;;;;;;;3.40;1.80;;;24.70;1.00;;;;;;7392408;19;20357;-72
2023/07/01 09:35:44;;;;;;;3.47;1.70;;;24.60;1.00;;;;;;7389522;19;20027;-73
2023/07/01 09:38:15;;;;;;;11.77;2.15;;;24.90;1.00;;;;;;7388434;19;20021;-72
2023/07/01 09:40:45;;;;;;;3.25;2.30;;;24.80;1.00;;;;;;7388775;19;20015;-72
2023/07/01 09:43:17;;;;;;;2.10;1.80;;;24.50;1.00;;;;;;7390328;19;20014;-72
2023/07/01 09:45:59;;;;;;;4.43;1.70;;;24.50;1.00;;;;;;7387616;19;20018;-71
2023/07/01 09:48:29;;;;;;;3.80;1.80;;;23.40;1.00;;;;;;7389630;19;20010;-71
2023/07/01 09:51:03;;;;;;;3.42;1.88;;;24.20;1.00;;;;;;7387979;19;20022;-72
2023/07/01 09:53:35;;;;;;;3.83;2.22;;;24.90;1.00;;;;;;7389524;19;20018;-71
2023/07/01 09:56:07;;;;;;;4.95;2.00;;;25.30;1.00;;;;;;7388350;19;20019;-71
2023/07/01 09:58:37;;;;;;;4.03;2.20;;;25.20;1.00;;;;;;7391943;19;20424;-71
2023/07/01 10:01:10;;;;;;;3.83;2.05;;;24.90;1.00;;;;;;7387561;19;20575;-72
2023/07/01 10:03:40;;;;;;;5.25;1.80;;;25.40;1.00;;;;;;7390343;19;20048;-72
2023/07/01 10:06:11;;;;;;;5.38;2.55;;;25.50;1.00;;;;;;7391435;19;20018;-72
2023/07/01 10:08:43;;;;;;;3.85;1.90;;;25.60;1.00;;;;;;7390444;19;20035;-72
2023/07/01 10:11:18;;;;;;;3.13;2.03;;;25.30;1.00;;;;;;7389182;19;20048;-72
2023/07/01 10:13:51;;;;;;;2.95;1.98;;;24.40;1.00;;;;;;7391696;19;20086;-72
2023/07/01 10:16:24;;;;;;;4.70;2.00;;;24.60;1.00;;;;;;7389449;19;20141;-72
2023/07/01 10:18:54;;;;;;;3.55;1.88;;;24.80;1.00;;;;;;7391087;19;20014;-72
2023/07/01 10:21:32;;;;;;;3.72;1.92;;;24.90;1.00;;;;;;7388417;19;20018;-72
2023/07/01 10:24:03;;;;;;;3.78;2.03;;;25.00;1.00;;;;;;7392164;19;20022;-72
2023/07/01 10:26:46;;;;;;;2.63;2.10;;;24.30;1.00;;;;;;7388722;19;20348;-72
2023/07/01 10:29:41;;;;;;;3.33;1.98;;;24.20;1.00;;;;;;7389839;19;20436;-71
2023/07/01 10:32:35;;;;;;;5.90;2.00;;;24.90;1.00;;;;;;7388779;19;20077;-72
2023/07/01 10:35:14;;;;;;;3.97;2.08;;;25.20;1.00;;;;;;7392034;19;20485;-73
2023/07/01 10:37:45;;;;;;;5.65;1.80;;;24.90;1.00;;;;;;7390693;19;20035;-72
2023/07/01 10:40:43;;;;;;;2.58;1.90;;;25.10;1.00;;;;;;7380739;19;20019;-72
2023/07/01 10:43:29;;;;;;;5.28;2.47;;;25.30;1.00;;;;;;7389840;19;20018;-72
2023/07/01 10:46:22;;;;;;;3.17;1.70;;;25.70;1.00;;;;;;7388293;19;20086;-73
2023/07/01 10:49:12;;;;;;;3.03;2.10;;;25.70;1.00;;;;;;7389400;19;20010;-72
2023/07/01 10:52:08;;;;;;;4.68;2.10;;;25.50;1.00;;;;;;7388085;19;20010;-73
2023/07/01 10:54:40;;;;;;;3.28;2.00;;;25.30;1.00;;;;;;7391880;19;20380;-75
2023/07/01 10:57:17;;;;;;;4.60;2.20;;;25.50;1.00;;;;;;7389150;19;20014;-72
2023/07/01 10:59:47;;;;;;;6.40;1.85;;;25.80;1.00;;;;;;7389003;19;20913;-72
2023/07/01 11:02:39;;;;;;;3.60;1.85;;;25.90;1.00;;;;;;7389366;19;20523;-73
2023/07/01 11:05:13;;;;;;;4.55;2.47;;;25.30;1.00;;;;;;7391195;19;20090;-72
2023/07/01 11:07:44;;;;;;;;;;;25.60;1.00;;;;;;7387618;19;20043;-72
2023/07/01 11:10:14;;;;;;;3.00;1.70;;;25.60;1.00;;;;;;7387839;19;19915;-72
2023/07/01 11:12:45;;;;;;;7.57;2.25;;;25.60;1.00;;;;;;7387145;19;20035;-72
2023/07/01 11:15:19;;;;;;;3.15;2.03;;;25.70;1.00;;;;;;7391273;19;20102;-72
2023/07/01 11:17:57;;;;;;;3.80;2.30;;;25.60;1.00;;;;;;7388403;19;20014;-72
2023/07/01 11:20:48;;;;;;;5.32;2.35;;;26.00;1.00;;;;;;7389184;19;20479;-85
2023/07/01 11:23:18;;;;;;;3.80;2.40;;;25.60;1.00;;;;;;7388939;19;20730;-71
2023/07/01 11:25:49;;;;;;;3.33;1.83;;;25.50;1.00;;;;;;7387054;19;20014;-70
2023/07/01 11:28:33;;;;;;;2.90;2.10;;;25.40;1.00;;;;;;7390094;19;20082;-70
2023/07/01 11:31:16;;;;;;;5.03;1.95;;;25.90;1.00;;;;;;7387252;19;20015;-72
2023/07/01 11:33:47;;;;;;;3.15;2.25;;;26.30;1.00;;;;;;7388718;19;20010;-72
2023/07/01 11:36:21;;;;;;;4.45;2.03;;;24.90;1.00;;;;;;7389579;19;20019;-71
2023/07/01 11:38:52;;;;;;;2.58;1.77;;;24.30;1.00;;;;;;7387573;19;20018;-71
2023/07/01 11:41:23;;;;;;;2.20;1.80;;;24.30;1.00;;;;;;7386177;19;20571;-72
2023/07/01 11:43:55;;;;;;;4.97;1.75;;;24.90;1.00;;;;;;7387221;19;20014;-71
2023/07/01 11:46:33;;;;;;;4.03;2.65;;;25.00;1.00;;;;;;7387217;19;20055;-71
2023/07/01 11:49:17;;;;;;;4.10;2.15;;;24.10;1.00;;;;;;7388163;19;20034;-71
2023/07/01 11:51:51;;;;;;;2.60;1.90;;;24.20;1.00;;;;;;7386534;19;20098;-71
2023/07/01 11:54:21;;;;;;;;;;;24.20;1.00;;;;;;7390934;19;20074;-71
2023/07/01 11:56:53;;;;;;;4.22;1.95;;;23.60;1.00;;;;;;7386963;19;19923;-70
2023/07/01 11:59:33;;;;;;;2.67;1.80;;;23.30;1.00;;;;;;7385942;19;20336;-71
2023/07/01 12:02:03;;;;;;;3.72;1.98;;;24.10;1.00;;;;;;7387583;19;20023;-71
2023/07/01 12:04:35;;;;;;;2.60;1.70;;;24.40;1.00;;;;;;7389206;19;20018;-72
2023/07/01 12:07:15;;;;;;;3.92;1.70;;;24.30;1.00;;;;;;7388223;19;20048;-71
2023/07/01 12:09:47;;;;;;;3.78;1.45;;;24.10;1.00;;;;;;7386948;19;20040;-72
2023/07/01 12:12:19;;;;;;;6.32;2.30;;;23.60;1.00;;;;;;7386764;19;20010;-72
2023/07/01 12:14:49;;;;;;;6.78;2.40;;;24.50;1.00;;;;;;7389530;19;20015;-72
2023/07/01 12:17:30;;;;;;;2.97;2.25;;;24.80;1.00;;;;;;7387605;19;20372;-71
2023/07/01 12:20:01;;;;;;;2.92;2.10;;;25.00;1.00;;;;;;7390883;19;20018;-70
2023/07/01 12:22:33;;;;;;;3.22;2.03;;;24.90;1.00;;;;;;7394922;19;20021;-72
2023/07/01 12:25:03;;;;;;;2.15;1.95;;;24.60;1.00;;;;;;7397738;19;20481;-72
2023/07/01 12:27:33;;;;;;;3.33;1.92;;;24.60;1.00;;;;;;7397126;19;20078;-71
2023/07/01 12:30:04;;;;;;;3.95;2.08;;;24.50;1.00;;;;;;7393892;19;20385;-71
2023/07/01 12:32:34;;;;;;;3.17;1.90;;;24.50;1.00;;;;;;7392696;19;20035;-72
2023/07/01 12:35:04;;;;;;;3.80;2.08;;;24.90;1.00;;;;;;7397022;19;20010;-71
2023/07/01 12:37:38;;;;;;;3.13;1.70;;;25.10;1.00;;;;;;7395272;19;20118;-71
2023/07/01 12:40:10;;;;;;;4.05;1.67;;;25.10;1.00;;;;;;7392822;19;20021;-72
2023/07/01 12:42:40;;;;;;;7.28;1.88;;;24.40;1.00;;;;;;7394953;19;20031;-71
2023/07/01 12:45:11;;;;;;;2.67;1.50;;;24.90;1.00;;;;;;7395835;19;20040;-72
2023/07/01 12:47:41;;;;;;;2.95;1.42;;;24.90;1.00;;;;;;7394058;19;20511;-72
2023/07/01 12:50:13;;;;;;;2.47;1.35;;;25.40;1.00;;;;;;7392931;19;20471;-72
2023/07/01 12:52:45;;;;;;;1.90;1.30;;;24.80;1.00;;;;;;7396846;19;20014;-71
2023/07/01 12:55:15;;;;;;;3.17;1.65;;;23.60;1.00;;;;;;7390482;19;20026;-71
2023/07/01 12:57:45;;;;;;;1.65;1.17;;;24.30;1.00;;;;;;7392886;19;20010;-69
2023/07/01 13:00:16;;;;;;;6.70;1.38;;;24.30;1.00;;;;;;7393056;19;20082;-70
2023/07/01 13:02:47;;;;;;;5.57;1.40;;;23.70;1.00;;;;;;7394100;19;20031;-72
2023/07/01 13:05:20;;;;;;;3.42;1.35;;;23.70;1.00;;;;;;7392249;19;20027;-72
2023/07/01 13:07:59;;;;;;;2.65;1.60;;;24.20;1.00;;;;;;7393255;19;20078;-71
2023/07/01 13:10:30;;;;;;;3.53;1.63;;;24.20;1.00;;;;;;7393182;19;20027;-72
2023/07/01 13:13:00;;;;;;;4.35;2.15;;;25.00;1.00;;;;;;7392876;19;20011;-72
2023/07/01 13:15:32;;;;;;;4.93;1.70;;;25.10;1.00;;;;;;7394195;19;20377;-72
2023/07/01 13:18:03;;;;;;;3.00;1.50;;;25.40;1.00;;;;;;7393937;19;20039;-72
2023/07/01 13:20:33;;;;;;;3.10;1.75;;;25.30;1.00;;;;;;7392928;19;20039;-73
2023/07/01 13:23:07;;;;;;;2.67;1.42;;;25.50;1.00;;;;;;7394517;19;20040;-72